createdAt,value
2023-02-24T00:00:25.558Z,99463.03
2023-02-24T00:03:48.865Z,99450.72
2023-02-24T00:06:19.407Z,99440.09
2023-02-24T00:09:00.533Z,99440.88
2023-02-24T00:11:29.652Z,99442.47
2023-02-24T00:13:58.669Z,99431.25
2023-02-24T00:16:27.526Z,99431.59
2023-02-24T00:18:56.714Z,99427.22
2023-02-24T00:21:27.287Z,99417.59
2023-02-24T00:23:56.930Z,99414.72
2023-02-24T00:26:26.605Z,99412.19
2023-02-24T00:28:55.403Z,99404.03
2023-02-24T00:31:25.585Z,99404.38
2023-02-24T00:33:57.382Z,99393.81
2023-02-24T00:36:29.312Z,99394.16
2023-02-24T00:38:59.658Z,99386.09
2023-02-24T00:41:30.144Z,99384.38
2023-02-24T00:44:06.203Z,99384.22
2023-02-24T00:46:37.240Z,99383.56
2023-02-24T00:49:12.861Z,99386.56
2023-02-24T00:51:44.113Z,99375.97
2023-02-24T00:54:15.134Z,99365.56
2023-02-24T00:56:45.393Z,99370.41
2023-02-24T00:59:18.756Z,99362.94
2023-02-24T01:01:50.847Z,99348.94
2023-02-24T01:04:22.377Z,99342.69
2023-02-24T01:07:00.189Z,99344.75
2023-02-24T01:09:31.854Z,99348.19
2023-02-24T01:12:17.789Z,99348.50
2023-02-24T01:14:48.675Z,99351.41
2023-02-24T01:17:20.408Z,99338.97
2023-02-24T01:19:50.444Z,99333.97
2023-02-24T01:22:21.416Z,99327.63
2023-02-24T01:24:50.846Z,99324.00
2023-02-24T01:27:20.430Z,99321.41
2023-02-24T01:29:50.265Z,99325.78
2023-02-24T01:32:21.719Z,99313.09
2023-02-24T01:34:53.716Z,99303.94
2023-02-24T01:37:24.330Z,99305.34
2023-02-24T01:39:53.494Z,99304.16
2023-02-24T01:42:24.215Z,99303.00
2023-02-24T01:45:15.252Z,99296.59
2023-02-24T01:47:47.539Z,99293.50
2023-02-24T01:50:18.011Z,99290.31
2023-02-24T01:52:49.153Z,99286.94
2023-02-24T01:55:22.897Z,99285.19
2023-02-24T01:57:53.635Z,99286.44
2023-02-24T02:00:45.676Z,99279.84
2023-02-24T02:03:24.280Z,99275.09
2023-02-24T02:05:54.775Z,99274.53
2023-02-24T02:08:27.609Z,99267.28
2023-02-24T02:10:59.068Z,99270.44
2023-02-24T02:13:30.220Z,99263.63
2023-02-24T02:16:07.086Z,99250.97
2023-02-24T02:18:47.541Z,99263.47
2023-02-24T02:21:49.523Z,99251.47
2023-02-24T02:24:31.815Z,99243.06
2023-02-24T02:27:29.563Z,99245.00
2023-02-24T02:30:25.677Z,99241.75
2023-02-24T02:33:38.615Z,99248.22
2023-02-24T02:36:15.456Z,99236.19
2023-02-24T02:38:52.232Z,99243.75
2023-02-24T02:41:25.814Z,99246.00
2023-02-24T02:44:02.860Z,99237.06
2023-02-24T02:46:36.372Z,99236.91
2023-02-24T02:49:11.621Z,99235.94
2023-02-24T02:51:44.451Z,99231.97
2023-02-24T02:54:18.413Z,99231.53
2023-02-24T02:56:50.726Z,99229.56
2023-02-24T02:59:23.648Z,99232.00
2023-02-24T03:01:55.738Z,99233.03
2023-02-24T03:04:27.129Z,99223.94
2023-02-24T03:07:00.963Z,99220.44
2023-02-24T03:09:33.128Z,99216.59
2023-02-24T03:12:08.416Z,99207.59
2023-02-24T03:14:40.756Z,99201.00
2023-02-24T03:17:15.051Z,99213.38
2023-02-24T03:19:43.944Z,99202.47
2023-02-24T03:22:18.309Z,99198.38
2023-02-24T03:24:47.868Z,99206.97
2023-02-24T03:27:27.716Z,99197.91
2023-02-24T03:30:00.292Z,99200.56
2023-02-24T03:32:34.395Z,99197.97
2023-02-24T03:35:07.211Z,99193.97
2023-02-24T03:37:38.846Z,99193.31
2023-02-24T03:40:11.819Z,99193.34
2023-02-24T03:42:43.473Z,99186.91
2023-02-24T03:45:12.937Z,99180.78
2023-02-24T03:47:42.715Z,99173.94
2023-02-24T03:50:14.448Z,99185.78
2023-02-24T03:52:49.368Z,99179.25
2023-02-24T03:55:26.151Z,99176.00
2023-02-24T03:58:05.606Z,99179.34
2023-02-24T04:00:46.994Z,99169.91
2023-02-24T04:03:25.762Z,99172.91
2023-02-24T04:06:09.556Z,99158.72
2023-02-24T04:08:45.244Z,99154.66
2023-02-24T04:11:21.164Z,99153.63
2023-02-24T04:13:53.076Z,99150.63
2023-02-24T04:16:29.245Z,99147.47
2023-02-24T04:19:02.985Z,99135.03
2023-02-24T04:21:34.389Z,99136.13
2023-02-24T04:24:07.439Z,99131.84
2023-02-24T04:26:40.518Z,99133.91
2023-02-24T04:29:17.661Z,99134.47
2023-02-24T04:31:48.206Z,99119.56
2023-02-24T04:34:20.319Z,99107.31
2023-02-24T04:36:51.068Z,99114.84
2023-02-24T04:39:23.566Z,99105.50
2023-02-24T04:41:57.840Z,99106.47
2023-02-24T04:44:28.298Z,99109.06
2023-02-24T04:46:57.399Z,99104.22
2023-02-24T04:49:27.256Z,99104.63
2023-02-24T04:51:57.310Z,99094.94
2023-02-24T04:54:29.809Z,99098.00
2023-02-24T04:56:59.630Z,99097.84
2023-02-24T04:59:33.576Z,99094.41
2023-02-24T05:02:02.698Z,99092.59
2023-02-24T05:04:34.527Z,99089.75
2023-02-24T05:07:03.759Z,99094.16
2023-02-24T05:09:34.453Z,99084.00
2023-02-24T05:12:06.378Z,99085.13
2023-02-24T05:14:35.970Z,99079.88
2023-02-24T05:17:05.270Z,99068.28
2023-02-24T05:19:51.393Z,99083.06
2023-02-24T05:22:23.016Z,99078.56
2023-02-24T05:24:54.120Z,99070.91
2023-02-24T05:27:23.418Z,99077.88
2023-02-24T05:29:55.156Z,99076.47
2023-02-24T05:32:25.551Z,99071.72
2023-02-24T05:34:54.489Z,99068.03
2023-02-24T05:37:23.583Z,99068.69
2023-02-24T05:39:56.828Z,99067.00
2023-02-24T05:42:26.420Z,99069.50
2023-02-24T05:44:55.814Z,99063.06
2023-02-24T05:47:27.138Z,99072.78
2023-02-24T05:49:59.308Z,99061.41
2023-02-24T05:52:28.547Z,99063.69
2023-02-24T05:55:02.819Z,99068.09
2023-02-24T05:57:37.992Z,99071.41
2023-02-24T06:00:16.708Z,99077.34
2023-02-24T06:02:49.789Z,99067.47
2023-02-24T06:05:28.987Z,99061.84
2023-02-24T06:08:06.638Z,99060.16
2023-02-24T06:10:37.340Z,99057.94
2023-02-24T06:13:06.978Z,99056.88
2023-02-24T06:15:37.596Z,99055.94
2023-02-24T06:18:07.449Z,99053.03
2023-02-24T06:20:38.772Z,99054.81
2023-02-24T06:23:08.923Z,99059.31
2023-02-24T06:25:39.904Z,99055.50
2023-02-24T06:28:09.982Z,99049.19
2023-02-24T06:30:39.425Z,99054.03
2023-02-24T06:33:09.088Z,99046.59
2023-02-24T06:35:39.787Z,99047.19
2023-02-24T06:38:08.917Z,99040.13
2023-02-24T06:40:39.250Z,99045.81
2023-02-24T06:43:12.332Z,99041.59
2023-02-24T06:45:41.576Z,99035.09
2023-02-24T06:48:12.051Z,99034.84
2023-02-24T06:50:42.234Z,99037.19
2023-02-24T06:53:17.123Z,99035.78
2023-02-24T06:55:49.025Z,99027.78
2023-02-24T06:58:20.975Z,99023.59
2023-02-24T07:00:57.020Z,99031.97
2023-02-24T07:03:40.477Z,99028.16
2023-02-24T07:06:20.588Z,99031.00
2023-02-24T07:08:49.878Z,99026.72
2023-02-24T07:11:20.852Z,99027.03
2023-02-24T07:13:51.055Z,99022.31
2023-02-24T07:16:25.223Z,99022.78
2023-02-24T07:18:56.842Z,99018.66
2023-02-24T07:21:27.681Z,99008.41
2023-02-24T07:23:59.084Z,99009.44
2023-02-24T07:26:30.708Z,99008.63
2023-02-24T07:28:59.902Z,99006.25
2023-02-24T07:31:29.341Z,99016.00
2023-02-24T07:34:00.702Z,99020.03
2023-02-24T07:36:31.132Z,99011.38
2023-02-24T07:39:01.781Z,99006.88
2023-02-24T07:41:32.354Z,99009.88
2023-02-24T07:44:03.471Z,99004.50
2023-02-24T07:46:33.671Z,99000.72
2023-02-24T07:49:04.337Z,99002.34
2023-02-24T07:51:33.595Z,98990.97
2023-02-24T07:54:05.322Z,98996.66
2023-02-24T07:56:46.130Z,98987.47
2023-02-24T07:59:19.006Z,98997.00
2023-02-24T08:01:50.973Z,98992.47
2023-02-24T08:04:23.515Z,98987.03
2023-02-24T08:06:57.132Z,98983.13
2023-02-24T08:09:44.999Z,98986.28
2023-02-24T08:12:18.201Z,98983.63
2023-02-24T08:14:51.256Z,98981.16
2023-02-24T08:17:21.565Z,98976.06
2023-02-24T08:19:57.937Z,98977.38
2023-02-24T08:22:28.932Z,98962.69
2023-02-24T08:25:00.841Z,98962.91
2023-02-24T08:27:31.829Z,98963.75
2023-02-24T08:30:03.056Z,98952.97
2023-02-24T08:32:37.222Z,98950.31
2023-02-24T08:35:14.674Z,98947.47
2023-02-24T08:37:47.272Z,98950.31
2023-02-24T08:40:38.141Z,98946.06
2023-02-24T08:43:17.393Z,98942.47
2023-02-24T08:45:51.018Z,98938.06
2023-02-24T08:48:32.395Z,98939.31
2023-02-24T08:51:04.762Z,98941.31
2023-02-24T08:53:34.058Z,98945.63
2023-02-24T08:56:09.784Z,98937.75
2023-02-24T08:58:47.530Z,98932.78
2023-02-24T09:01:24.596Z,98927.31
2023-02-24T09:03:56.806Z,98923.03
2023-02-24T09:06:35.242Z,98922.69
2023-02-24T09:09:21.268Z,98917.59
2023-02-24T09:11:56.527Z,98918.56
2023-02-24T09:14:29.454Z,98915.50
2023-02-24T09:17:11.273Z,98915.66
2023-02-24T09:20:02.512Z,98899.94
2023-02-24T09:22:33.229Z,98903.31
2023-02-24T09:25:21.897Z,98889.72
2023-02-24T09:27:57.241Z,98895.72
2023-02-24T09:30:38.671Z,98891.53
2023-02-24T09:33:18.128Z,98892.94
2023-02-24T09:35:48.826Z,98889.09
2023-02-24T09:38:19.264Z,98891.31
2023-02-24T09:40:52.880Z,98882.09
2023-02-24T09:43:25.665Z,98880.75
2023-02-24T09:46:02.313Z,98886.75
2023-02-24T09:48:44.132Z,98884.94
2023-02-24T09:51:22.115Z,98886.88
2023-02-24T09:53:54.566Z,98881.59
2023-02-24T09:56:30.441Z,98879.59
2023-02-24T09:59:10.422Z,98889.03
2023-02-24T10:01:49.943Z,98882.06
2023-02-24T10:04:53.948Z,98877.44
2023-02-24T10:07:27.870Z,98871.16
2023-02-24T10:10:19.611Z,98874.03
2023-02-24T10:12:53.007Z,98864.84
2023-02-24T10:15:57.053Z,98869.44
2023-02-24T10:18:34.208Z,98862.75
2023-02-24T10:21:15.722Z,98880.59
2023-02-24T10:23:56.894Z,98877.47
2023-02-24T10:26:33.065Z,98875.34
2023-02-24T10:29:09.249Z,98879.59
2023-02-24T10:31:46.418Z,98867.03
2023-02-24T10:34:26.536Z,98867.75
2023-02-24T10:36:57.613Z,98860.94
2023-02-24T10:39:27.330Z,98854.69
2023-02-24T10:42:15.772Z,98855.66
2023-02-24T10:45:03.383Z,98857.44
2023-02-24T10:47:33.163Z,98857.63
2023-02-24T10:50:07.548Z,98857.44
2023-02-24T10:52:50.905Z,98841.56
2023-02-24T10:55:39.244Z,98834.34
2023-02-24T10:58:16.026Z,98847.00
2023-02-24T11:01:00.773Z,98832.41
2023-02-24T11:03:42.320Z,98826.53
2023-02-24T11:06:42.437Z,98822.22
2023-02-24T11:09:32.375Z,98808.22
2023-02-24T11:12:23.957Z,98810.03
2023-02-24T11:15:12.273Z,98803.28
2023-02-24T11:17:48.013Z,98791.72
2023-02-24T11:20:23.695Z,98790.34
2023-02-24T11:22:55.994Z,98786.34
2023-02-24T11:25:27.572Z,98782.75
2023-02-24T11:27:57.255Z,98779.00
2023-02-24T11:30:49.211Z,98773.72
2023-02-24T11:33:24.021Z,98772.75
2023-02-24T11:36:00.435Z,98766.66
2023-02-24T11:38:39.969Z,98763.66
2023-02-24T11:41:19.994Z,98753.56
2023-02-24T11:43:57.981Z,98752.69
2023-02-24T11:46:39.515Z,98757.66
2023-02-24T11:49:22.329Z,98751.00
2023-02-24T11:51:51.952Z,98748.69
2023-02-24T11:54:23.644Z,98744.16
2023-02-24T11:56:55.881Z,98741.53
2023-02-24T11:59:33.691Z,98740.34
2023-02-24T12:02:08.154Z,98738.34
2023-02-24T12:04:39.988Z,98733.50
2023-02-24T12:07:13.100Z,98733.34
2023-02-24T12:09:46.893Z,98731.09
2023-02-24T12:12:20.211Z,98717.97
2023-02-24T12:14:53.669Z,98712.72
2023-02-24T12:17:27.464Z,98712.44
2023-02-24T12:20:06.046Z,98711.25
2023-02-24T12:22:46.119Z,98707.78
2023-02-24T12:25:19.177Z,98711.28
2023-02-24T12:27:57.204Z,98717.16
2023-02-24T12:30:57.823Z,98707.72
2023-02-24T12:33:29.264Z,98693.66
2023-02-24T12:36:05.146Z,98698.38
2023-02-24T12:38:44.840Z,98696.63
2023-02-24T12:41:37.272Z,98694.66
2023-02-24T12:44:16.491Z,98687.72
2023-02-24T12:46:47.306Z,98684.66
2023-02-24T12:49:57.382Z,98676.72
2023-02-24T12:52:32.641Z,98680.72
2023-02-24T12:55:06.807Z,98674.25
2023-02-24T12:57:44.054Z,98677.03
2023-02-24T13:00:16.357Z,98665.16
2023-02-24T13:02:52.151Z,98662.16
2023-02-24T13:05:24.394Z,98667.16
2023-02-24T13:08:08.789Z,98665.66
2023-02-24T13:10:44.797Z,98653.44
2023-02-24T13:13:23.113Z,98641.72
2023-02-24T13:15:54.335Z,98642.63
2023-02-24T13:18:28.424Z,98633.69
2023-02-24T13:21:09.289Z,98640.47
2023-02-24T13:23:42.982Z,98626.81
2023-02-24T13:26:12.019Z,98634.38
2023-02-24T13:28:42.142Z,98623.13
2023-02-24T13:31:13.142Z,98623.53
2023-02-24T13:33:43.274Z,98632.34
2023-02-24T13:36:17.596Z,98630.06
2023-02-24T13:38:48.190Z,98621.28
2023-02-24T13:41:24.471Z,98616.56
2023-02-24T13:44:00.745Z,98610.53
2023-02-24T13:46:32.619Z,98603.69
2023-02-24T13:49:06.572Z,98607.97
2023-02-24T13:51:59.278Z,98596.69
2023-02-24T13:55:09.024Z,98593.00
2023-02-24T13:57:52.568Z,98589.94
2023-02-24T14:00:32.637Z,98584.47
2023-02-24T14:03:02.031Z,98585.69
2023-02-24T14:05:34.483Z,98581.72
2023-02-24T14:08:04.341Z,98592.22
2023-02-24T14:10:34.822Z,98587.84
2023-02-24T14:13:07.025Z,98588.09
2023-02-24T14:15:37.748Z,98587.72
2023-02-24T14:18:07.437Z,98593.59
2023-02-24T14:20:38.055Z,98588.72
2023-02-24T14:23:23.529Z,98572.78
2023-02-24T14:25:56.384Z,98564.63
2023-02-24T14:28:27.944Z,98566.94
2023-02-24T14:31:00.340Z,98563.53
2023-02-24T14:33:32.398Z,98557.41
2023-02-24T14:36:02.017Z,98556.50
2023-02-24T14:38:34.638Z,98554.88
2023-02-24T14:41:07.990Z,98556.00
2023-02-24T14:43:43.048Z,98551.94
2023-02-24T14:46:13.807Z,98557.81
2023-02-24T14:48:43.041Z,98540.72
2023-02-24T14:51:15.615Z,98534.03
2023-02-24T14:53:47.805Z,98545.44
2023-02-24T14:56:17.340Z,98547.09
2023-02-24T14:58:48.792Z,98540.94
2023-02-24T15:01:24.366Z,98540.91
2023-02-24T15:06:49.236Z,98531.06
2023-02-24T15:09:21.648Z,98534.94
2023-02-24T15:11:53.267Z,98524.53
2023-02-24T15:14:24.840Z,98524.53
2023-02-24T15:16:56.063Z,98523.28
2023-02-24T15:19:28.542Z,98524.50
2023-02-24T15:21:57.663Z,98521.31
2023-02-24T15:24:29.022Z,98524.09
2023-02-24T15:26:59.958Z,98522.97
2023-02-24T15:29:30.593Z,98524.03
2023-02-24T15:32:02.081Z,98515.53
2023-02-24T15:34:33.099Z,98510.66
2023-02-24T15:37:04.642Z,98506.53
2023-02-24T15:39:37.069Z,98508.41
2023-02-24T15:42:10.585Z,98509.53
2023-02-24T15:44:39.891Z,98507.56
2023-02-24T15:47:23.730Z,98502.41
2023-02-24T15:49:53.622Z,98503.34
2023-02-24T15:52:25.060Z,98505.28
2023-02-24T15:54:54.680Z,98499.53
2023-02-24T15:57:25.300Z,98508.91
2023-02-24T15:59:54.720Z,98498.91
2023-02-24T16:02:26.106Z,98499.13
2023-02-24T16:04:55.647Z,98499.38
2023-02-24T16:07:28.818Z,98504.28
2023-02-24T16:09:59.189Z,98516.19
2023-02-24T16:12:32.189Z,98520.78
2023-02-24T16:15:05.527Z,98519.28
2023-02-24T16:17:39.135Z,98520.28
2023-02-24T16:20:12.301Z,98526.44
2023-02-24T16:22:40.962Z,98531.41
2023-02-24T16:25:12.101Z,98522.13
2023-02-24T16:27:41.253Z,98529.34
2023-02-24T16:30:17.153Z,98519.34
2023-02-24T16:32:48.563Z,98526.97
2023-02-24T16:35:18.412Z,98523.03
2023-02-24T16:37:47.981Z,98517.03
2023-02-24T16:40:23.259Z,98528.38
2023-02-24T16:42:53.735Z,98520.53
2023-02-24T16:45:23.408Z,98524.91
2023-02-24T16:47:54.361Z,98520.56
2023-02-24T16:50:25.302Z,98525.09
2023-02-24T16:52:54.057Z,98521.81
2023-02-24T16:55:24.028Z,98519.28
2023-02-24T16:57:53.240Z,98516.16
2023-02-24T17:00:24.320Z,98517.72
2023-02-24T17:02:55.363Z,98501.34
2023-02-24T17:05:26.171Z,98509.38
2023-02-24T17:07:58.956Z,98519.94
2023-02-24T17:10:28.029Z,98517.44
2023-02-24T17:12:57.046Z,98517.16
2023-02-24T17:15:27.866Z,98520.53
2023-02-24T17:17:58.623Z,98515.47
2023-02-24T17:20:29.002Z,98506.72
2023-02-24T17:22:57.673Z,98502.84
2023-02-24T17:25:28.352Z,98497.03
2023-02-24T17:27:58.429Z,98496.59
2023-02-24T17:30:30.789Z,98496.34
2023-02-24T17:33:02.281Z,98495.84
2023-02-24T17:35:31.579Z,98497.72
2023-02-24T17:38:00.588Z,98500.56
2023-02-24T17:40:29.313Z,98490.28
2023-02-24T17:42:58.459Z,98481.44
2023-02-24T17:45:27.721Z,98489.63
2023-02-24T17:47:56.818Z,98479.88
2023-02-24T17:50:27.326Z,98483.53
2023-02-24T17:52:56.814Z,98476.53
2023-02-24T17:55:25.991Z,98468.81
2023-02-24T17:57:57.089Z,98469.78
2023-02-24T18:00:26.485Z,98468.72
2023-02-24T18:02:55.999Z,98465.69
2023-02-24T18:05:26.963Z,98457.88
2023-02-24T18:07:55.841Z,98455.41
2023-02-24T18:10:25.041Z,98449.84
2023-02-24T18:12:55.331Z,98465.03
2023-02-24T18:15:24.541Z,98456.22
2023-02-24T18:17:53.674Z,98450.41
2023-02-24T18:20:23.010Z,98448.50
2023-02-24T18:22:53.160Z,98444.75
2023-02-24T18:25:22.356Z,98442.13
2023-02-24T18:27:51.423Z,98436.63
2023-02-24T18:30:21.444Z,98440.47
2023-02-24T18:32:52.011Z,98436.38
2023-02-24T18:35:22.269Z,98431.91
2023-02-24T18:37:56.644Z,98414.34
2023-02-24T18:40:27.482Z,98401.78
2023-02-24T18:42:57.003Z,98412.25
2023-02-24T18:45:26.261Z,98419.53
2023-02-24T18:47:55.652Z,98415.63
2023-02-24T18:50:25.251Z,98407.97
2023-02-24T18:52:55.383Z,98409.16
2023-02-24T18:55:24.488Z,98411.88
2023-02-24T18:57:54.123Z,98408.72
2023-02-24T19:00:23.740Z,98409.59
2023-02-24T19:02:52.894Z,98394.41
2023-02-24T19:05:22.126Z,98392.88
2023-02-24T19:07:50.822Z,98391.13
2023-02-24T19:10:21.702Z,98376.84
2023-02-24T19:12:52.118Z,98382.94
2023-02-24T19:15:22.521Z,98376.66
2023-02-24T19:17:51.569Z,98383.06
2023-02-24T19:20:21.201Z,98376.13
2023-02-24T19:22:51.681Z,98372.56
2023-02-24T19:25:22.445Z,98365.31
2023-02-24T19:27:51.577Z,98361.19
2023-02-24T19:30:20.713Z,98361.41
2023-02-24T19:32:49.993Z,98351.63
2023-02-24T19:35:19.929Z,98347.97
2023-02-24T19:37:49.548Z,98340.31
2023-02-24T19:40:19.490Z,98342.84
2023-02-24T19:42:51.889Z,98337.50
2023-02-24T19:45:21.250Z,98334.84
2023-02-24T19:47:50.792Z,98337.47
2023-02-24T19:50:20.050Z,98346.38
2023-02-24T19:52:48.733Z,98341.16
2023-02-24T19:55:18.141Z,98347.38
2023-02-24T19:57:47.399Z,98346.91
2023-02-24T20:00:20.987Z,98347.47
2023-02-24T20:02:50.362Z,98348.13
2023-02-24T20:05:19.669Z,98351.00
2023-02-24T20:07:48.436Z,98345.84
2023-02-24T20:10:18.836Z,98341.19
2023-02-24T20:12:48.084Z,98343.06
2023-02-24T20:15:20.316Z,98337.66
2023-02-24T20:17:49.889Z,98335.94
2023-02-24T20:20:19.033Z,98334.00
2023-02-24T20:22:47.874Z,98333.97
2023-02-24T20:25:18.173Z,98335.13
2023-02-24T20:27:47.299Z,98326.34
2023-02-24T20:30:16.785Z,98324.81
2023-02-24T20:32:48.302Z,98320.06
2023-02-24T20:35:17.688Z,98327.22
2023-02-24T20:37:46.725Z,98322.19
2023-02-24T20:40:16.152Z,98315.84
2023-02-24T20:42:45.313Z,98318.13
2023-02-24T20:45:14.520Z,98305.94
2023-02-24T20:47:43.702Z,98298.34
2023-02-24T20:50:14.908Z,98300.44
2023-02-24T20:52:43.597Z,98296.59
2023-02-24T20:55:12.956Z,98284.31
2023-02-24T20:57:42.181Z,98283.06
2023-02-24T21:00:12.545Z,98286.69
2023-02-24T21:02:41.545Z,98273.81
2023-02-24T21:05:12.336Z,98291.34
2023-02-24T21:07:42.633Z,98285.16
2023-02-24T21:10:13.801Z,98272.00
2023-02-24T21:12:43.166Z,98269.25
2023-02-24T21:15:14.751Z,98261.06
2023-02-24T21:17:44.042Z,98255.50
2023-02-24T21:20:14.240Z,98259.63
2023-02-24T21:22:44.564Z,98251.16
2023-02-24T21:25:13.798Z,98256.25
2023-02-24T21:27:43.042Z,98249.59
2023-02-24T21:30:13.280Z,98240.66
2023-02-24T21:32:43.137Z,98239.69
2023-02-24T21:35:12.386Z,98235.41
2023-02-24T21:37:41.450Z,98233.56
2023-02-24T21:40:14.317Z,98235.28
2023-02-24T21:42:44.617Z,98229.94
2023-02-24T21:45:14.027Z,98227.41
2023-02-24T21:47:43.728Z,98222.84
2023-02-24T21:50:16.069Z,98220.16
2023-02-24T21:52:47.321Z,98206.03
2023-02-24T21:55:19.301Z,98206.22
2023-02-24T21:57:48.483Z,98204.84
2023-02-24T22:00:21.224Z,98189.81
2023-02-24T22:02:51.592Z,98185.69
2023-02-24T22:05:20.818Z,98193.03
2023-02-24T22:07:50.326Z,98182.25
2023-02-24T22:10:23.036Z,98188.41
2023-02-24T22:12:52.081Z,98192.00
2023-02-24T22:15:21.318Z,98185.13
2023-02-24T22:17:50.418Z,98162.47
2023-02-24T22:20:19.654Z,98162.34
2023-02-24T22:22:50.913Z,98162.94
2023-02-24T22:25:21.561Z,98159.09
2023-02-24T22:27:52.196Z,98174.94
2023-02-24T22:30:21.453Z,98153.28
2023-02-24T22:32:51.036Z,98155.97
2023-02-24T22:35:20.255Z,98152.94
2023-02-24T22:37:48.956Z,98147.09
2023-02-24T22:40:20.686Z,98137.09
2023-02-24T22:42:51.292Z,98129.28
2023-02-24T22:45:20.374Z,98126.88
2023-02-24T22:47:49.606Z,98137.13
2023-02-24T22:50:18.945Z,98136.47
2023-02-24T22:52:49.113Z,98126.44
2023-02-24T22:55:19.779Z,98118.38
2023-02-24T22:57:50.325Z,98122.44
2023-02-24T23:00:23.317Z,98122.97
2023-02-24T23:02:52.436Z,98116.59
2023-02-24T23:05:21.655Z,98106.34
2023-02-24T23:07:50.644Z,98106.06
2023-02-24T23:10:19.874Z,98106.31
2023-02-24T23:12:50.411Z,98099.41
2023-02-24T23:15:19.494Z,98099.50
2023-02-24T23:17:49.035Z,98101.09
2023-02-24T23:20:18.778Z,98095.72
2023-02-24T23:22:50.567Z,98096.38
2023-02-24T23:25:23.193Z,98101.31
2023-02-24T23:27:54.911Z,98096.44
2023-02-24T23:30:24.775Z,98085.84
2023-02-24T23:32:53.856Z,98082.63
2023-02-24T23:35:23.120Z,98070.31
2023-02-24T23:37:51.822Z,98065.84
2023-02-24T23:40:26.107Z,98049.66
2023-02-24T23:42:56.930Z,98044.81
2023-02-24T23:45:26.169Z,98042.19
2023-02-24T23:47:55.228Z,98031.81
2023-02-24T23:50:24.352Z,98028.81
2023-02-24T23:52:53.999Z,98022.22
2023-02-24T23:55:23.204Z,98017.41
2023-02-24T23:57:53.233Z,98017.88
